Terminal Aerodrome Forecast
Issued by NWS Charleston, WV

Current Version | Previous Version | Graphics & Text | Print | Product List | Glossary On
Versions: 1 2 3 4 5 6 7 8 9 10 11 12 13 14 15 16 17 18 19 20 21 22 23 24 25 26
175
FTUS41 KRLX 210540
TAFPKB
TAF
KPKB 210540Z 2106/2206 00000KT P6SM SKC
     FM211000 00000KT 3SM BR SCT001
     FM211300 VRB03KT P6SM SCT250=

USA.gov is the U.S. government's official web portal to all federal, state and local government web resources and services.